N408DD BGSF-BGKK
Flight info
| Callsign | N408DD |
|---|---|
| Flight time | 2h 9m |
| Altitude | 11000 |
| Route | SF W28 DA |
| Aircraft | BE36/L-BDFGLORY/S |
Departure
| Time | 2026-05-07 21:26 |
|---|---|
| Airport | Kangerlussuaq International Airport (BGSF) |
Arrival
| Time | 2026-05-07 23:36 |
|---|---|
| Airport | Kulusuk Airport (BGKK) |
| Time | Latitude | Longitude | Altitude | Speed | Heading |
|---|---|---|---|---|---|
| 2026-05-07 21:07 | 67.00958 | -50.70857 | 174 ft | 0 kts | 139° |
| 2026-05-07 21:20 | 67.00957 | -50.70855 | 174 ft | 1 kts | 139° |
| 2026-05-07 21:20 | 67.00949 | -50.70793 | 174 ft | 7 kts | 29° |
| 2026-05-07 21:21 | 67.01008 | -50.70677 | 176 ft | 13 kts | 63° |
| 2026-05-07 21:21 | 67.01008 | -50.70673 | 176 ft | 12 kts | 63° |
| 2026-05-07 21:21 | 67.01028 | -50.70580 | 177 ft | 15 kts | 57° |
| 2026-05-07 21:21 | 67.01099 | -50.70301 | 181 ft | 20 kts | 49° |
| 2026-05-07 21:22 | 67.01174 | -50.70262 | 182 ft | 11 kts | 348° |
| 2026-05-07 21:22 | 67.01274 | -50.70321 | 183 ft | 19 kts | 343° |
| 2026-05-07 21:22 | 67.01344 | -50.70483 | 182 ft | 11 kts | 264° |
| 2026-05-07 21:22 | 67.01324 | -50.70686 | 180 ft | 15 kts | 239° |
| 2026-05-07 21:23 | 67.01281 | -50.70881 | 177 ft | 0 kts | 244° |
| 2026-05-07 21:23 | 67.01277 | -50.70906 | 177 ft | 5 kts | 244° |
| 2026-05-07 21:23 | 67.01274 | -50.70917 | 177 ft | 5 kts | 241° |
| 2026-05-07 21:24 | 67.01273 | -50.70925 | 176 ft | 5 kts | 241° |
| 2026-05-07 21:24 | 67.01261 | -50.70980 | 175 ft | 4 kts | 241° |
| 2026-05-07 21:25 | 67.01251 | -50.71026 | 174 ft | 4 kts | 241° |
| 2026-05-07 21:25 | 67.01218 | -50.71177 | 173 ft | 36 kts | 240° |
| 2026-05-07 21:25 | 67.01000 | -50.72195 | 178 ft | 86 kts | 239° |
| 2026-05-07 21:26 | 67.00660 | -50.73550 | 336 ft | 95 kts | 236° |
| 2026-05-07 21:26 | 67.00317 | -50.74953 | 584 ft | 93 kts | 236° |
| 2026-05-07 21:26 | 67.00031 | -50.76521 | 722 ft | 102 kts | 250° |
| 2026-05-07 21:26 | 66.99770 | -50.78240 | 893 ft | 105 kts | 248° |
| 2026-05-07 21:27 | 66.99483 | -50.79988 | 1057 ft | 110 kts | 245° |
| 2026-05-07 21:27 | 66.99149 | -50.81847 | 1232 ft | 120 kts | 244° |
| 2026-05-07 21:27 | 66.98781 | -50.83788 | 1470 ft | 121 kts | 243° |
| 2026-05-07 21:27 | 66.98308 | -50.85546 | 1753 ft | 122 kts | 217° |
| 2026-05-07 21:28 | 66.97523 | -50.86254 | 2030 ft | 121 kts | 183° |
| 2026-05-07 21:28 | 66.96714 | -50.85638 | 2320 ft | 125 kts | 150° |
| 2026-05-07 21:28 | 66.96204 | -50.83819 | 2582 ft | 131 kts | 111° |
| 2026-05-07 21:28 | 66.96071 | -50.81488 | 2844 ft | 132 kts | 102° |
| 2026-05-07 21:29 | 66.95948 | -50.79300 | 3084 ft | 117 kts | 105° |
| 2026-05-07 21:29 | 66.95841 | -50.77288 | 3330 ft | 114 kts | 104° |
| 2026-05-07 21:29 | 66.95727 | -50.75297 | 3578 ft | 116 kts | 102° |
| 2026-05-07 21:29 | 66.95614 | -50.73254 | 3798 ft | 116 kts | 106° |
| 2026-05-07 21:30 | 66.95499 | -50.71204 | 4032 ft | 118 kts | 101° |
| 2026-05-07 21:30 | 66.95385 | -50.69136 | 4264 ft | 116 kts | 105° |
| 2026-05-07 21:30 | 66.95273 | -50.67115 | 4497 ft | 114 kts | 105° |
| 2026-05-07 21:30 | 66.95163 | -50.65127 | 4734 ft | 112 kts | 105° |
| 2026-05-07 21:31 | 66.95057 | -50.63178 | 4961 ft | 110 kts | 104° |
| 2026-05-07 21:31 | 66.94945 | -50.61232 | 5191 ft | 112 kts | 103° |
| 2026-05-07 21:31 | 66.94835 | -50.59255 | 5418 ft | 111 kts | 103° |
| 2026-05-07 21:31 | 66.94725 | -50.57316 | 5650 ft | 110 kts | 105° |
| 2026-05-07 21:32 | 66.94619 | -50.55408 | 5877 ft | 107 kts | 105° |
| 2026-05-07 21:32 | 66.94514 | -50.53538 | 6127 ft | 107 kts | 104° |
| 2026-05-07 21:32 | 66.94399 | -50.51565 | 6273 ft | 118 kts | 103° |
| 2026-05-07 21:32 | 66.94273 | -50.49425 | 6427 ft | 125 kts | 103° |
| 2026-05-07 21:33 | 66.94147 | -50.47194 | 6576 ft | 129 kts | 103° |
| 2026-05-07 21:33 | 66.94016 | -50.44883 | 6714 ft | 134 kts | 104° |
| 2026-05-07 21:33 | 66.93882 | -50.42508 | 6852 ft | 136 kts | 105° |
| 2026-05-07 21:33 | 66.93744 | -50.40100 | 6988 ft | 138 kts | 103° |
| 2026-05-07 21:34 | 66.93605 | -50.37664 | 7125 ft | 140 kts | 103° |
| 2026-05-07 21:34 | 66.93464 | -50.35206 | 7258 ft | 140 kts | 104° |
| 2026-05-07 21:34 | 66.93321 | -50.32757 | 7386 ft | 139 kts | 103° |
| 2026-05-07 21:34 | 66.93182 | -50.30317 | 7524 ft | 139 kts | 104° |
| 2026-05-07 21:35 | 66.93039 | -50.27870 | 7653 ft | 139 kts | 103° |
| 2026-05-07 21:35 | 66.92899 | -50.25452 | 7783 ft | 141 kts | 105° |
| 2026-05-07 21:35 | 66.92750 | -50.22926 | 7917 ft | 143 kts | 103° |
| 2026-05-07 21:35 | 66.92606 | -50.20449 | 8048 ft | 143 kts | 104° |
| 2026-05-07 21:36 | 66.92459 | -50.17943 | 8180 ft | 143 kts | 104° |
| 2026-05-07 21:36 | 66.92313 | -50.15454 | 8313 ft | 141 kts | 104° |
| 2026-05-07 21:36 | 66.92169 | -50.13008 | 8438 ft | 139 kts | 105° |
| 2026-05-07 21:36 | 66.92073 | -50.11387 | 8519 ft | 138 kts | 104° |
| 2026-05-07 21:37 | 66.91932 | -50.08987 | 8652 ft | 135 kts | 105° |
| 2026-05-07 21:37 | 66.91791 | -50.06637 | 8780 ft | 135 kts | 105° |
| 2026-05-07 21:37 | 66.91649 | -50.04268 | 8918 ft | 135 kts | 105° |
| 2026-05-07 21:37 | 66.91501 | -50.01882 | 9047 ft | 138 kts | 107° |
| 2026-05-07 21:38 | 66.91359 | -49.99470 | 9177 ft | 135 kts | 107° |
| 2026-05-07 21:38 | 66.91221 | -49.97125 | 9310 ft | 133 kts | 107° |
| 2026-05-07 21:38 | 66.91083 | -49.94818 | 9454 ft | 130 kts | 107° |
| 2026-05-07 21:38 | 66.90948 | -49.92565 | 9616 ft | 128 kts | 107° |
| 2026-05-07 21:39 | 66.90811 | -49.90325 | 9775 ft | 127 kts | 107° |
| 2026-05-07 21:39 | 66.90677 | -49.88111 | 9954 ft | 125 kts | 107° |
| 2026-05-07 21:39 | 66.90545 | -49.85936 | 10104 ft | 123 kts | 107° |
| 2026-05-07 21:39 | 66.90415 | -49.83794 | 10253 ft | 122 kts | 108° |
| 2026-05-07 21:40 | 66.90285 | -49.81679 | 10388 ft | 120 kts | 107° |
| 2026-05-07 21:40 | 66.90156 | -49.79578 | 10540 ft | 119 kts | 108° |
| 2026-05-07 21:40 | 66.90030 | -49.77514 | 10678 ft | 117 kts | 108° |
| 2026-05-07 21:40 | 66.89908 | -49.75515 | 10820 ft | 113 kts | 108° |
| 2026-05-07 21:41 | 66.89786 | -49.73537 | 10969 ft | 113 kts | 108° |
| 2026-05-07 21:41 | 66.89654 | -49.71465 | 11037 ft | 126 kts | 108° |
| 2026-05-07 21:41 | 66.89504 | -49.69141 | 11045 ft | 140 kts | 107° |
| 2026-05-07 21:41 | 66.89348 | -49.66640 | 11051 ft | 150 kts | 106° |
| 2026-05-07 21:42 | 66.89182 | -49.63952 | 11048 ft | 157 kts | 105° |
| 2026-05-07 21:42 | 66.89009 | -49.61151 | 11049 ft | 162 kts | 105° |
| 2026-05-07 21:42 | 66.88831 | -49.58286 | 11050 ft | 166 kts | 105° |
| 2026-05-07 21:42 | 66.88649 | -49.55370 | 11048 ft | 168 kts | 105° |
| 2026-05-07 21:43 | 66.88463 | -49.52419 | 11050 ft | 169 kts | 105° |
| 2026-05-07 21:43 | 66.88276 | -49.49450 | 11050 ft | 171 kts | 105° |
| 2026-05-07 21:43 | 66.88086 | -49.46457 | 11063 ft | 172 kts | 105° |
| 2026-05-07 21:43 | 66.87896 | -49.43456 | 11066 ft | 172 kts | 105° |
| 2026-05-07 21:44 | 66.87704 | -49.40440 | 11067 ft | 172 kts | 105° |
| 2026-05-07 21:44 | 66.87510 | -49.37426 | 11060 ft | 173 kts | 105° |
| 2026-05-07 21:44 | 66.87317 | -49.34412 | 11064 ft | 173 kts | 105° |
| 2026-05-07 21:44 | 66.87123 | -49.31394 | 11061 ft | 173 kts | 105° |
| 2026-05-07 21:45 | 66.86928 | -49.28375 | 11058 ft | 173 kts | 105° |
| 2026-05-07 21:45 | 66.86732 | -49.25350 | 11056 ft | 174 kts | 105° |
| 2026-05-07 21:45 | 66.86535 | -49.22322 | 11056 ft | 173 kts | 105° |
| 2026-05-07 21:45 | 66.86338 | -49.19302 | 11058 ft | 173 kts | 105° |
| 2026-05-07 21:46 | 66.86141 | -49.16287 | 11059 ft | 173 kts | 105° |
| 2026-05-07 21:46 | 66.85943 | -49.13277 | 11059 ft | 173 kts | 105° |
| 2026-05-07 21:46 | 66.85745 | -49.10263 | 11059 ft | 173 kts | 105° |
| 2026-05-07 21:46 | 66.85547 | -49.07259 | 11055 ft | 173 kts | 105° |
| 2026-05-07 21:47 | 66.85347 | -49.04249 | 11054 ft | 173 kts | 105° |
| 2026-05-07 21:47 | 66.85147 | -49.01237 | 11054 ft | 173 kts | 105° |
| 2026-05-07 21:47 | 66.84947 | -48.98219 | 11059 ft | 173 kts | 105° |
| 2026-05-07 21:47 | 66.84748 | -48.95247 | 11060 ft | 173 kts | 105° |
| 2026-05-07 21:48 | 66.84546 | -48.92225 | 11061 ft | 174 kts | 105° |
| 2026-05-07 21:48 | 66.84341 | -48.89195 | 11061 ft | 174 kts | 105° |
| 2026-05-07 21:48 | 66.84138 | -48.86169 | 11064 ft | 174 kts | 105° |
| 2026-05-07 21:48 | 66.83933 | -48.83144 | 11062 ft | 174 kts | 105° |
| 2026-05-07 21:49 | 66.83729 | -48.80124 | 11061 ft | 173 kts | 105° |
| 2026-05-07 21:49 | 66.83523 | -48.77108 | 11061 ft | 174 kts | 105° |
| 2026-05-07 21:49 | 66.83384 | -48.75066 | 11061 ft | 174 kts | 105° |
| 2026-05-07 21:49 | 66.83181 | -48.72087 | 11060 ft | 173 kts | 106° |
| 2026-05-07 21:50 | 66.82974 | -48.69073 | 11061 ft | 173 kts | 105° |
| 2026-05-07 21:50 | 66.82766 | -48.66055 | 11065 ft | 173 kts | 106° |
| 2026-05-07 21:50 | 66.82559 | -48.63044 | 11062 ft | 173 kts | 106° |
| 2026-05-07 21:50 | 66.82350 | -48.60035 | 11065 ft | 173 kts | 106° |
| 2026-05-07 21:51 | 66.82141 | -48.57020 | 11062 ft | 174 kts | 106° |
| 2026-05-07 21:51 | 66.81931 | -48.54000 | 11065 ft | 174 kts | 106° |
| 2026-05-07 21:51 | 66.81720 | -48.50983 | 11064 ft | 174 kts | 106° |
| 2026-05-07 21:51 | 66.81510 | -48.47969 | 11064 ft | 174 kts | 106° |
| 2026-05-07 21:52 | 66.81298 | -48.44955 | 11065 ft | 173 kts | 106° |
| 2026-05-07 21:52 | 66.81086 | -48.41947 | 11063 ft | 173 kts | 106° |
| 2026-05-07 21:52 | 66.80875 | -48.38942 | 11063 ft | 173 kts | 106° |
| 2026-05-07 21:52 | 66.80662 | -48.35940 | 11064 ft | 173 kts | 106° |
| 2026-05-07 21:53 | 66.80448 | -48.32937 | 11065 ft | 173 kts | 106° |
| 2026-05-07 21:53 | 66.80235 | -48.29933 | 11072 ft | 173 kts | 106° |
| 2026-05-07 21:53 | 66.80022 | -48.26944 | 11075 ft | 172 kts | 106° |
| 2026-05-07 21:53 | 66.79808 | -48.23958 | 11083 ft | 172 kts | 107° |
| 2026-05-07 21:54 | 66.79594 | -48.20979 | 11083 ft | 172 kts | 107° |
| 2026-05-07 21:54 | 66.79380 | -48.18007 | 11083 ft | 171 kts | 106° |
| 2026-05-07 21:54 | 66.79166 | -48.15038 | 11085 ft | 171 kts | 107° |
| 2026-05-07 21:54 | 66.78951 | -48.12062 | 11084 ft | 171 kts | 107° |
| 2026-05-07 21:55 | 66.78738 | -48.09133 | 11084 ft | 171 kts | 107° |
| 2026-05-07 21:55 | 66.78519 | -48.06127 | 11082 ft | 172 kts | 107° |
| 2026-05-07 21:55 | 66.78305 | -48.03202 | 11083 ft | 171 kts | 106° |
| 2026-05-07 21:55 | 66.78089 | -48.00243 | 11083 ft | 171 kts | 106° |
| 2026-05-07 21:56 | 66.77872 | -47.97287 | 11082 ft | 171 kts | 106° |
| 2026-05-07 21:56 | 66.77655 | -47.94337 | 11083 ft | 171 kts | 106° |
| 2026-05-07 21:56 | 66.77436 | -47.91379 | 11083 ft | 171 kts | 106° |
| 2026-05-07 21:56 | 66.77217 | -47.88415 | 11083 ft | 171 kts | 106° |
| 2026-05-07 21:57 | 66.76997 | -47.85456 | 11090 ft | 171 kts | 106° |
| 2026-05-07 21:57 | 66.76778 | -47.82498 | 11090 ft | 171 kts | 106° |
| 2026-05-07 21:57 | 66.76557 | -47.79542 | 11090 ft | 171 kts | 106° |
| 2026-05-07 21:57 | 66.76336 | -47.76590 | 11089 ft | 170 kts | 107° |
| 2026-05-07 21:58 | 66.76116 | -47.73645 | 11089 ft | 170 kts | 106° |
| 2026-05-07 21:58 | 66.75894 | -47.70694 | 11089 ft | 171 kts | 106° |
| 2026-05-07 21:58 | 66.75671 | -47.67745 | 11089 ft | 171 kts | 106° |
| 2026-05-07 21:58 | 66.75448 | -47.64798 | 11089 ft | 170 kts | 107° |
| 2026-05-07 21:59 | 66.75225 | -47.61854 | 11099 ft | 170 kts | 106° |
| 2026-05-07 21:59 | 66.75001 | -47.58913 | 11100 ft | 170 kts | 107° |
| 2026-05-07 21:59 | 66.74777 | -47.55970 | 11099 ft | 170 kts | 107° |
| 2026-05-07 21:59 | 66.74552 | -47.53027 | 11099 ft | 171 kts | 107° |
| 2026-05-07 22:00 | 66.74326 | -47.50081 | 11104 ft | 170 kts | 107° |
| 2026-05-07 22:00 | 66.74100 | -47.47136 | 11104 ft | 170 kts | 107° |
| 2026-05-07 22:00 | 66.73875 | -47.44203 | 11107 ft | 170 kts | 107° |
| 2026-05-07 22:00 | 66.73648 | -47.41263 | 11106 ft | 170 kts | 107° |
| 2026-05-07 22:01 | 66.73420 | -47.38321 | 11106 ft | 170 kts | 107° |
| 2026-05-07 22:01 | 66.73193 | -47.35383 | 11106 ft | 170 kts | 107° |
| 2026-05-07 22:01 | 66.72964 | -47.32451 | 11105 ft | 170 kts | 107° |
| 2026-05-07 22:01 | 66.72735 | -47.29520 | 11105 ft | 170 kts | 107° |
| 2026-05-07 22:02 | 66.72506 | -47.26587 | 11105 ft | 170 kts | 107° |
| 2026-05-07 22:02 | 66.72276 | -47.23655 | 11105 ft | 170 kts | 107° |
| 2026-05-07 22:02 | 66.72046 | -47.20727 | 11105 ft | 170 kts | 107° |
| 2026-05-07 22:02 | 66.71819 | -47.17842 | 11105 ft | 170 kts | 107° |
| 2026-05-07 22:03 | 66.71587 | -47.14908 | 11105 ft | 170 kts | 107° |
| 2026-05-07 22:03 | 66.71355 | -47.11982 | 11105 ft | 170 kts | 107° |
| 2026-05-07 22:03 | 66.71123 | -47.09048 | 11105 ft | 170 kts | 107° |
| 2026-05-07 22:03 | 66.70890 | -47.06126 | 11105 ft | 170 kts | 107° |
| 2026-05-07 22:04 | 66.70656 | -47.03200 | 11105 ft | 170 kts | 106° |
| 2026-05-07 22:04 | 66.70422 | -47.00277 | 11105 ft | 170 kts | 107° |
| 2026-05-07 22:04 | 66.70187 | -46.97343 | 11105 ft | 170 kts | 107° |
| 2026-05-07 22:04 | 66.69951 | -46.94410 | 11105 ft | 171 kts | 107° |
| 2026-05-07 22:05 | 66.69715 | -46.91471 | 11108 ft | 171 kts | 107° |
| 2026-05-07 22:05 | 66.69477 | -46.88536 | 11107 ft | 171 kts | 107° |
| 2026-05-07 22:05 | 66.69239 | -46.85593 | 11108 ft | 171 kts | 107° |
| 2026-05-07 22:05 | 66.69000 | -46.82652 | 11109 ft | 171 kts | 107° |
| 2026-05-07 22:06 | 66.68760 | -46.79709 | 11108 ft | 171 kts | 107° |
| 2026-05-07 22:06 | 66.68521 | -46.76764 | 11110 ft | 171 kts | 107° |
| 2026-05-07 22:06 | 66.68280 | -46.73822 | 11110 ft | 171 kts | 107° |
| 2026-05-07 22:06 | 66.68038 | -46.70878 | 11108 ft | 171 kts | 107° |
| 2026-05-07 22:07 | 66.67797 | -46.67934 | 11109 ft | 171 kts | 107° |
| 2026-05-07 22:07 | 66.67554 | -46.64991 | 11111 ft | 171 kts | 107° |
| 2026-05-07 22:07 | 66.67311 | -46.62050 | 11111 ft | 171 kts | 107° |
| 2026-05-07 22:07 | 66.67068 | -46.59110 | 11104 ft | 171 kts | 107° |
| 2026-05-07 22:08 | 66.66824 | -46.56171 | 11107 ft | 171 kts | 107° |
| 2026-05-07 22:08 | 66.66579 | -46.53227 | 11107 ft | 171 kts | 106° |
| 2026-05-07 22:08 | 66.66337 | -46.50323 | 11107 ft | 171 kts | 107° |
| 2026-05-07 22:08 | 66.66091 | -46.47380 | 11108 ft | 172 kts | 107° |
| 2026-05-07 22:09 | 66.65844 | -46.44436 | 11110 ft | 172 kts | 107° |
| 2026-05-07 22:09 | 66.65597 | -46.41493 | 11111 ft | 172 kts | 107° |
| 2026-05-07 22:09 | 66.65349 | -46.38548 | 11110 ft | 172 kts | 107° |
| 2026-05-07 22:09 | 66.65100 | -46.35605 | 11111 ft | 172 kts | 107° |
| 2026-05-07 22:10 | 66.64851 | -46.32657 | 11109 ft | 172 kts | 107° |
| 2026-05-07 22:10 | 66.64600 | -46.29708 | 11108 ft | 172 kts | 107° |
| 2026-05-07 22:10 | 66.64349 | -46.26757 | 11109 ft | 172 kts | 107° |
| 2026-05-07 22:10 | 66.64099 | -46.23811 | 11110 ft | 172 kts | 107° |
| 2026-05-07 22:11 | 66.63847 | -46.20866 | 11106 ft | 172 kts | 107° |
| 2026-05-07 22:11 | 66.63595 | -46.17922 | 11108 ft | 172 kts | 107° |
| 2026-05-07 22:11 | 66.63342 | -46.14981 | 11108 ft | 172 kts | 107° |
| 2026-05-07 22:11 | 66.63089 | -46.12038 | 11108 ft | 172 kts | 107° |
| 2026-05-07 22:12 | 66.62835 | -46.09096 | 11111 ft | 172 kts | 107° |
| 2026-05-07 22:12 | 66.62581 | -46.06155 | 11111 ft | 172 kts | 107° |
| 2026-05-07 22:12 | 66.62327 | -46.03219 | 11108 ft | 171 kts | 106° |
| 2026-05-07 22:12 | 66.62071 | -46.00282 | 11107 ft | 172 kts | 106° |
| 2026-05-07 22:13 | 66.61814 | -45.97331 | 11107 ft | 173 kts | 106° |
| 2026-05-07 22:13 | 66.61556 | -45.94375 | 11107 ft | 173 kts | 106° |
| 2026-05-07 22:13 | 66.61297 | -45.91412 | 11107 ft | 173 kts | 106° |
| 2026-05-07 22:13 | 66.61037 | -45.88452 | 11108 ft | 173 kts | 107° |
| 2026-05-07 22:14 | 66.60777 | -45.85492 | 11108 ft | 173 kts | 106° |
| 2026-05-07 22:14 | 66.60516 | -45.82527 | 11108 ft | 174 kts | 106° |
| 2026-05-07 22:14 | 66.60254 | -45.79561 | 11108 ft | 174 kts | 107° |
| 2026-05-07 22:14 | 66.59992 | -45.76597 | 11108 ft | 174 kts | 106° |
| 2026-05-07 22:15 | 66.59728 | -45.73636 | 11111 ft | 174 kts | 106° |
| 2026-05-07 22:15 | 66.59465 | -45.70670 | 11111 ft | 174 kts | 107° |
| 2026-05-07 22:15 | 66.59201 | -45.67706 | 11111 ft | 174 kts | 107° |
| 2026-05-07 22:15 | 66.58936 | -45.64743 | 11112 ft | 174 kts | 107° |
| 2026-05-07 22:16 | 66.58670 | -45.61777 | 11112 ft | 174 kts | 107° |
| 2026-05-07 22:16 | 66.58405 | -45.58815 | 11111 ft | 174 kts | 107° |
| 2026-05-07 22:16 | 66.58138 | -45.55853 | 11112 ft | 174 kts | 107° |
| 2026-05-07 22:16 | 66.57871 | -45.52898 | 11112 ft | 174 kts | 107° |
| 2026-05-07 22:17 | 66.57604 | -45.49938 | 11112 ft | 174 kts | 107° |
| 2026-05-07 22:17 | 66.57335 | -45.46981 | 11112 ft | 174 kts | 107° |
| 2026-05-07 22:17 | 66.57071 | -45.44064 | 11111 ft | 174 kts | 107° |
| 2026-05-07 22:17 | 66.56802 | -45.41107 | 11112 ft | 174 kts | 107° |
| 2026-05-07 22:18 | 66.56532 | -45.38153 | 11112 ft | 174 kts | 107° |
| 2026-05-07 22:18 | 66.55991 | -45.32243 | 11112 ft | 174 kts | 107° |
| 2026-05-07 22:18 | 66.55720 | -45.29290 | 11112 ft | 174 kts | 107° |
| 2026-05-07 22:19 | 66.55448 | -45.26332 | 11112 ft | 174 kts | 107° |
| 2026-05-07 22:19 | 66.55175 | -45.23377 | 11112 ft | 174 kts | 107° |
| 2026-05-07 22:19 | 66.54901 | -45.20421 | 11112 ft | 174 kts | 107° |
| 2026-05-07 22:19 | 66.54628 | -45.17471 | 11112 ft | 174 kts | 107° |
| 2026-05-07 22:20 | 66.54354 | -45.14519 | 11112 ft | 174 kts | 107° |
| 2026-05-07 22:20 | 66.54079 | -45.11566 | 11112 ft | 174 kts | 107° |
| 2026-05-07 22:20 | 66.53803 | -45.08613 | 11112 ft | 174 kts | 107° |
| 2026-05-07 22:20 | 66.53527 | -45.05656 | 11113 ft | 174 kts | 107° |
| 2026-05-07 22:21 | 66.53250 | -45.02701 | 11112 ft | 174 kts | 106° |
| 2026-05-07 22:21 | 66.52972 | -44.99744 | 11114 ft | 175 kts | 106° |
| 2026-05-07 22:21 | 66.52693 | -44.96778 | 11107 ft | 175 kts | 106° |
| 2026-05-07 22:21 | 66.52412 | -44.93807 | 11114 ft | 175 kts | 106° |
| 2026-05-07 22:22 | 66.52135 | -44.90873 | 11114 ft | 175 kts | 105° |
| 2026-05-07 22:22 | 66.51854 | -44.87904 | 11116 ft | 175 kts | 106° |
| 2026-05-07 22:22 | 66.51571 | -44.84931 | 11118 ft | 175 kts | 106° |
| 2026-05-07 22:22 | 66.51288 | -44.81955 | 11118 ft | 176 kts | 106° |
| 2026-05-07 22:23 | 66.51004 | -44.78980 | 11110 ft | 176 kts | 106° |
| 2026-05-07 22:23 | 66.50718 | -44.75994 | 11112 ft | 176 kts | 106° |
| 2026-05-07 22:23 | 66.50433 | -44.73014 | 11106 ft | 176 kts | 106° |
| 2026-05-07 22:23 | 66.50147 | -44.70032 | 11117 ft | 176 kts | 106° |
| 2026-05-07 22:24 | 66.49859 | -44.67046 | 11119 ft | 176 kts | 106° |
| 2026-05-07 22:24 | 66.49571 | -44.64065 | 11122 ft | 176 kts | 106° |
| 2026-05-07 22:24 | 66.49283 | -44.61080 | 11122 ft | 176 kts | 106° |
| 2026-05-07 22:24 | 66.48994 | -44.58097 | 11116 ft | 176 kts | 106° |
| 2026-05-07 22:25 | 66.48704 | -44.55113 | 11119 ft | 176 kts | 106° |
| 2026-05-07 22:25 | 66.48414 | -44.52132 | 11116 ft | 176 kts | 106° |
| 2026-05-07 22:25 | 66.48124 | -44.49153 | 11118 ft | 176 kts | 106° |
| 2026-05-07 22:25 | 66.47832 | -44.46169 | 11123 ft | 176 kts | 106° |
| 2026-05-07 22:26 | 66.47540 | -44.43190 | 11123 ft | 176 kts | 106° |
| 2026-05-07 22:26 | 66.47247 | -44.40206 | 11118 ft | 176 kts | 106° |
| 2026-05-07 22:26 | 66.46954 | -44.37228 | 11122 ft | 176 kts | 106° |
| 2026-05-07 22:26 | 66.46660 | -44.34251 | 11112 ft | 176 kts | 106° |
| 2026-05-07 22:27 | 66.46366 | -44.31273 | 11119 ft | 176 kts | 106° |
| 2026-05-07 22:27 | 66.46076 | -44.28341 | 11119 ft | 176 kts | 106° |
| 2026-05-07 22:27 | 66.45781 | -44.25371 | 11111 ft | 176 kts | 106° |
| 2026-05-07 22:27 | 66.45485 | -44.22398 | 11116 ft | 176 kts | 106° |
| 2026-05-07 22:28 | 66.45189 | -44.19432 | 11108 ft | 176 kts | 107° |
| 2026-05-07 22:28 | 66.44894 | -44.16467 | 11114 ft | 176 kts | 106° |
| 2026-05-07 22:28 | 66.44596 | -44.13500 | 11114 ft | 176 kts | 107° |
| 2026-05-07 22:28 | 66.44299 | -44.10536 | 11110 ft | 176 kts | 107° |
| 2026-05-07 22:29 | 66.44001 | -44.07573 | 11114 ft | 176 kts | 107° |
| 2026-05-07 22:29 | 66.43703 | -44.04615 | 11107 ft | 175 kts | 106° |
| 2026-05-07 22:29 | 66.43405 | -44.01661 | 11109 ft | 175 kts | 106° |
| 2026-05-07 22:29 | 66.43105 | -43.98700 | 11106 ft | 176 kts | 106° |
| 2026-05-07 22:30 | 66.42805 | -43.95740 | 11114 ft | 176 kts | 106° |
| 2026-05-07 22:30 | 66.42505 | -43.92781 | 11113 ft | 176 kts | 107° |
| 2026-05-07 22:30 | 66.42203 | -43.89820 | 11115 ft | 176 kts | 107° |
| 2026-05-07 22:30 | 66.41902 | -43.86862 | 11107 ft | 176 kts | 107° |
| 2026-05-07 22:31 | 66.41599 | -43.83899 | 11105 ft | 176 kts | 107° |
| 2026-05-07 22:31 | 66.41295 | -43.80932 | 11109 ft | 176 kts | 107° |
| 2026-05-07 22:31 | 66.40991 | -43.77971 | 11109 ft | 176 kts | 106° |
| 2026-05-07 22:31 | 66.40685 | -43.75005 | 11096 ft | 176 kts | 107° |
| 2026-05-07 22:32 | 66.40380 | -43.72044 | 11103 ft | 176 kts | 106° |
| 2026-05-07 22:32 | 66.40074 | -43.69075 | 11109 ft | 177 kts | 107° |
| 2026-05-07 22:32 | 66.39767 | -43.66114 | 11109 ft | 176 kts | 107° |
| 2026-05-07 22:32 | 66.39459 | -43.63149 | 11103 ft | 176 kts | 107° |
| 2026-05-07 22:33 | 66.39151 | -43.60184 | 11107 ft | 176 kts | 107° |
| 2026-05-07 22:33 | 66.38843 | -43.57222 | 11093 ft | 176 kts | 107° |
| 2026-05-07 22:33 | 66.38534 | -43.54264 | 11093 ft | 176 kts | 107° |
| 2026-05-07 22:33 | 66.38224 | -43.51304 | 11094 ft | 176 kts | 107° |
| 2026-05-07 22:34 | 66.37914 | -43.48343 | 11095 ft | 176 kts | 107° |
| 2026-05-07 22:34 | 66.37604 | -43.45387 | 11085 ft | 176 kts | 107° |
| 2026-05-07 22:34 | 66.37292 | -43.42430 | 11091 ft | 177 kts | 107° |
| 2026-05-07 22:34 | 66.36980 | -43.39472 | 11085 ft | 176 kts | 107° |
| 2026-05-07 22:35 | 66.36668 | -43.36517 | 11086 ft | 176 kts | 107° |
| 2026-05-07 22:35 | 66.36355 | -43.33563 | 11090 ft | 176 kts | 107° |
| 2026-05-07 22:35 | 66.36046 | -43.30651 | 11084 ft | 176 kts | 107° |
| 2026-05-07 22:35 | 66.35733 | -43.27705 | 11084 ft | 176 kts | 107° |
| 2026-05-07 22:36 | 66.35419 | -43.24760 | 11091 ft | 176 kts | 107° |
| 2026-05-07 22:36 | 66.35105 | -43.21817 | 11091 ft | 176 kts | 106° |
| 2026-05-07 22:36 | 66.34791 | -43.18878 | 11087 ft | 176 kts | 106° |
| 2026-05-07 22:36 | 66.34476 | -43.15940 | 11085 ft | 175 kts | 106° |
| 2026-05-07 22:37 | 66.34161 | -43.13009 | 11086 ft | 175 kts | 106° |
| 2026-05-07 22:37 | 66.33846 | -43.10082 | 11081 ft | 175 kts | 107° |
| 2026-05-07 22:37 | 66.33531 | -43.07160 | 11079 ft | 174 kts | 106° |
| 2026-05-07 22:37 | 66.33216 | -43.04247 | 11087 ft | 174 kts | 105° |
| 2026-05-07 22:38 | 66.32902 | -43.01341 | 11084 ft | 174 kts | 105° |
| 2026-05-07 22:38 | 66.32587 | -42.98437 | 11083 ft | 174 kts | 105° |
| 2026-05-07 22:38 | 66.32271 | -42.95535 | 11083 ft | 174 kts | 105° |
| 2026-05-07 22:38 | 66.31953 | -42.92644 | 11081 ft | 173 kts | 106° |
| 2026-05-07 22:39 | 66.31634 | -42.89755 | 11076 ft | 173 kts | 106° |
| 2026-05-07 22:39 | 66.31322 | -42.86866 | 11074 ft | 173 kts | 106° |
| 2026-05-07 22:39 | 66.31007 | -42.83981 | 11071 ft | 173 kts | 106° |
| 2026-05-07 22:39 | 66.30690 | -42.81096 | 11075 ft | 173 kts | 106° |
| 2026-05-07 22:40 | 66.30373 | -42.78211 | 11075 ft | 173 kts | 106° |
| 2026-05-07 22:40 | 66.30055 | -42.75324 | 11081 ft | 173 kts | 106° |
| 2026-05-07 22:40 | 66.29736 | -42.72441 | 11076 ft | 173 kts | 106° |
| 2026-05-07 22:40 | 66.29418 | -42.69560 | 11084 ft | 173 kts | 107° |
| 2026-05-07 22:41 | 66.29206 | -42.67651 | 11074 ft | 173 kts | 107° |
| 2026-05-07 22:41 | 66.28886 | -42.64771 | 11081 ft | 173 kts | 106° |
| 2026-05-07 22:41 | 66.28566 | -42.61889 | 11084 ft | 173 kts | 106° |
| 2026-05-07 22:41 | 66.28141 | -42.58071 | 11081 ft | 173 kts | 107° |
| 2026-05-07 22:42 | 66.27819 | -42.55189 | 11084 ft | 173 kts | 107° |
| 2026-05-07 22:42 | 66.27601 | -42.53241 | 11084 ft | 173 kts | 106° |
| 2026-05-07 22:42 | 66.27278 | -42.50358 | 11076 ft | 173 kts | 106° |
| 2026-05-07 22:42 | 66.26955 | -42.47476 | 11084 ft | 173 kts | 107° |
| 2026-05-07 22:43 | 66.26635 | -42.44633 | 11083 ft | 173 kts | 107° |
| 2026-05-07 22:43 | 66.26307 | -42.41718 | 11084 ft | 173 kts | 107° |
| 2026-05-07 22:43 | 66.25986 | -42.38881 | 11076 ft | 173 kts | 106° |
| 2026-05-07 22:43 | 66.25662 | -42.36004 | 11080 ft | 173 kts | 107° |
| 2026-05-07 22:44 | 66.25336 | -42.33130 | 11080 ft | 173 kts | 106° |
| 2026-05-07 22:44 | 66.25009 | -42.30257 | 11084 ft | 173 kts | 107° |
| 2026-05-07 22:44 | 66.24682 | -42.27386 | 11084 ft | 173 kts | 107° |
| 2026-05-07 22:44 | 66.24354 | -42.24520 | 11079 ft | 173 kts | 107° |
| 2026-05-07 22:45 | 66.24026 | -42.21652 | 11077 ft | 173 kts | 107° |
| 2026-05-07 22:45 | 66.23698 | -42.18783 | 11086 ft | 173 kts | 107° |
| 2026-05-07 22:45 | 66.23369 | -42.15908 | 11086 ft | 173 kts | 107° |
| 2026-05-07 22:45 | 66.23039 | -42.13034 | 11086 ft | 173 kts | 107° |
| 2026-05-07 22:46 | 66.22709 | -42.10165 | 11083 ft | 173 kts | 106° |
| 2026-05-07 22:46 | 66.22379 | -42.07308 | 11082 ft | 172 kts | 106° |
| 2026-05-07 22:46 | 66.22049 | -42.04452 | 11084 ft | 172 kts | 106° |
| 2026-05-07 22:46 | 66.21719 | -42.01599 | 11077 ft | 172 kts | 106° |
| 2026-05-07 22:47 | 66.21388 | -41.98740 | 11080 ft | 172 kts | 106° |
| 2026-05-07 22:47 | 66.21057 | -41.95886 | 11083 ft | 172 kts | 106° |
| 2026-05-07 22:47 | 66.20726 | -41.93033 | 11084 ft | 172 kts | 106° |
| 2026-05-07 22:47 | 66.20398 | -41.90221 | 11081 ft | 172 kts | 106° |
| 2026-05-07 22:48 | 66.20065 | -41.87374 | 11084 ft | 172 kts | 106° |
| 2026-05-07 22:48 | 66.19733 | -41.84528 | 11081 ft | 172 kts | 106° |
| 2026-05-07 22:48 | 66.19400 | -41.81684 | 11084 ft | 172 kts | 106° |
| 2026-05-07 22:48 | 66.19065 | -41.78834 | 11086 ft | 172 kts | 106° |
| 2026-05-07 22:49 | 66.18730 | -41.75985 | 11082 ft | 172 kts | 106° |
| 2026-05-07 22:49 | 66.18395 | -41.73140 | 11085 ft | 172 kts | 106° |
| 2026-05-07 22:49 | 66.18059 | -41.70295 | 11083 ft | 172 kts | 106° |
| 2026-05-07 22:49 | 66.17722 | -41.67450 | 11082 ft | 172 kts | 106° |
| 2026-05-07 22:50 | 66.17386 | -41.64607 | 11088 ft | 172 kts | 106° |
| 2026-05-07 22:50 | 66.17049 | -41.61765 | 11091 ft | 172 kts | 107° |
| 2026-05-07 22:50 | 66.16713 | -41.58920 | 11089 ft | 173 kts | 105° |
| 2026-05-07 22:50 | 66.16372 | -41.56072 | 11095 ft | 173 kts | 105° |
| 2026-05-07 22:51 | 66.16031 | -41.53220 | 11093 ft | 173 kts | 105° |
| 2026-05-07 22:51 | 66.15690 | -41.50373 | 11093 ft | 173 kts | 105° |
| 2026-05-07 22:51 | 66.15350 | -41.47524 | 11097 ft | 173 kts | 105° |
| 2026-05-07 22:51 | 66.15009 | -41.44680 | 11093 ft | 173 kts | 105° |
| 2026-05-07 22:52 | 66.14672 | -41.41871 | 11097 ft | 173 kts | 106° |
| 2026-05-07 22:52 | 66.14328 | -41.39024 | 11097 ft | 173 kts | 105° |
| 2026-05-07 22:52 | 66.13985 | -41.36176 | 11094 ft | 173 kts | 105° |
| 2026-05-07 22:52 | 66.13641 | -41.33326 | 11097 ft | 173 kts | 105° |
| 2026-05-07 22:53 | 66.13296 | -41.30479 | 11093 ft | 173 kts | 105° |
| 2026-05-07 22:53 | 66.12951 | -41.27637 | 11094 ft | 173 kts | 106° |
| 2026-05-07 22:53 | 66.12606 | -41.24792 | 11095 ft | 173 kts | 105° |
| 2026-05-07 22:53 | 66.12263 | -41.21944 | 11091 ft | 173 kts | 105° |
| 2026-05-07 22:54 | 66.11918 | -41.19095 | 11094 ft | 173 kts | 106° |
| 2026-05-07 22:54 | 66.11570 | -41.16246 | 11099 ft | 173 kts | 105° |
| 2026-05-07 22:54 | 66.11220 | -41.13393 | 11110 ft | 174 kts | 105° |
| 2026-05-07 22:54 | 66.10868 | -41.10523 | 11102 ft | 175 kts | 104° |
| 2026-05-07 22:55 | 66.10514 | -41.07642 | 11112 ft | 176 kts | 104° |
| 2026-05-07 22:55 | 66.10159 | -41.04749 | 11109 ft | 176 kts | 104° |
| 2026-05-07 22:55 | 66.09802 | -41.01853 | 11106 ft | 177 kts | 104° |
| 2026-05-07 22:55 | 66.09444 | -40.98952 | 11109 ft | 177 kts | 105° |
| 2026-05-07 22:56 | 66.09091 | -40.96098 | 11111 ft | 176 kts | 104° |
| 2026-05-07 22:56 | 66.08728 | -40.93167 | 11117 ft | 176 kts | 104° |
| 2026-05-07 22:56 | 66.08373 | -40.90312 | 11113 ft | 177 kts | 104° |
| 2026-05-07 22:56 | 66.07995 | -40.87383 | 11118 ft | 177 kts | 106° |
| 2026-05-07 22:57 | 66.07624 | -40.84542 | 11111 ft | 177 kts | 105° |
| 2026-05-07 22:57 | 66.07265 | -40.81648 | 11111 ft | 176 kts | 106° |
| 2026-05-07 22:57 | 66.06907 | -40.78765 | 11110 ft | 176 kts | 104° |
| 2026-05-07 22:57 | 66.06537 | -40.75887 | 11111 ft | 176 kts | 108° |
| 2026-05-07 22:58 | 66.06154 | -40.73026 | 11102 ft | 176 kts | 107° |
| 2026-05-07 22:58 | 66.05794 | -40.70152 | 11102 ft | 176 kts | 105° |
| 2026-05-07 22:58 | 66.05436 | -40.67275 | 11104 ft | 176 kts | 106° |
| 2026-05-07 22:58 | 66.05074 | -40.64398 | 11103 ft | 176 kts | 106° |
| 2026-05-07 22:59 | 66.04707 | -40.61535 | 11097 ft | 175 kts | 108° |
| 2026-05-07 22:59 | 66.04345 | -40.58673 | 11100 ft | 175 kts | 107° |
| 2026-05-07 22:59 | 66.03984 | -40.55813 | 11099 ft | 175 kts | 106° |
| 2026-05-07 22:59 | 66.03621 | -40.52957 | 11103 ft | 175 kts | 108° |
| 2026-05-07 23:00 | 66.03258 | -40.50101 | 11107 ft | 175 kts | 107° |
| 2026-05-07 23:00 | 66.02895 | -40.47245 | 11108 ft | 175 kts | 106° |
| 2026-05-07 23:00 | 66.02532 | -40.44396 | 11102 ft | 175 kts | 106° |
| 2026-05-07 23:00 | 66.02169 | -40.41541 | 11105 ft | 175 kts | 107° |
| 2026-05-07 23:01 | 66.01807 | -40.38688 | 11130 ft | 175 kts | 103° |
| 2026-05-07 23:01 | 66.01487 | -40.35805 | 11136 ft | 175 kts | 105° |
| 2026-05-07 23:01 | 66.01127 | -40.32942 | 11131 ft | 176 kts | 106° |
| 2026-05-07 23:01 | 66.00754 | -40.30083 | 11128 ft | 176 kts | 104° |
| 2026-05-07 23:02 | 66.00382 | -40.27210 | 11127 ft | 177 kts | 105° |
| 2026-05-07 23:02 | 66.00011 | -40.24337 | 11125 ft | 177 kts | 106° |
| 2026-05-07 23:02 | 65.99638 | -40.21460 | 11130 ft | 177 kts | 106° |
| 2026-05-07 23:02 | 65.99264 | -40.18581 | 11134 ft | 177 kts | 105° |
| 2026-05-07 23:03 | 65.98891 | -40.15705 | 11130 ft | 177 kts | 105° |
| 2026-05-07 23:03 | 65.98521 | -40.12866 | 11133 ft | 177 kts | 105° |
| 2026-05-07 23:03 | 65.98146 | -40.09983 | 11136 ft | 177 kts | 105° |
| 2026-05-07 23:03 | 65.97765 | -40.07064 | 11128 ft | 178 kts | 105° |
| 2026-05-07 23:04 | 65.97387 | -40.04179 | 11130 ft | 177 kts | 106° |
| 2026-05-07 23:04 | 65.97015 | -40.01339 | 11137 ft | 177 kts | 105° |
| 2026-05-07 23:04 | 65.96639 | -39.98458 | 11140 ft | 178 kts | 106° |
| 2026-05-07 23:04 | 65.96257 | -39.95573 | 11141 ft | 178 kts | 106° |
| 2026-05-07 23:05 | 65.95875 | -39.92674 | 11142 ft | 179 kts | 106° |
| 2026-05-07 23:05 | 65.95492 | -39.89770 | 11138 ft | 180 kts | 104° |
| 2026-05-07 23:05 | 65.95107 | -39.86873 | 11145 ft | 176 kts | 104° |
| 2026-05-07 23:05 | 65.94728 | -39.84023 | 11025 ft | 176 kts | 105° |
| 2026-05-07 23:06 | 65.94356 | -39.81216 | 11009 ft | 170 kts | 104° |
| 2026-05-07 23:06 | 65.93998 | -39.78522 | 11008 ft | 162 kts | 106° |
| 2026-05-07 23:06 | 65.93655 | -39.75954 | 11007 ft | 156 kts | 106° |
| 2026-05-07 23:06 | 65.93319 | -39.73427 | 10912 ft | 158 kts | 104° |
| 2026-05-07 23:07 | 65.92975 | -39.70847 | 10785 ft | 160 kts | 105° |
| 2026-05-07 23:07 | 65.92627 | -39.68231 | 10664 ft | 163 kts | 104° |
| 2026-05-07 23:07 | 65.92273 | -39.65595 | 10567 ft | 163 kts | 105° |
| 2026-05-07 23:07 | 65.91919 | -39.62968 | 10468 ft | 162 kts | 104° |
| 2026-05-07 23:08 | 65.91567 | -39.60344 | 10368 ft | 162 kts | 106° |
| 2026-05-07 23:08 | 65.91215 | -39.57728 | 10273 ft | 162 kts | 106° |
| 2026-05-07 23:08 | 65.90863 | -39.55117 | 10177 ft | 162 kts | 105° |
| 2026-05-07 23:08 | 65.90509 | -39.52503 | 10074 ft | 162 kts | 106° |
| 2026-05-07 23:09 | 65.90156 | -39.49893 | 9967 ft | 162 kts | 104° |
| 2026-05-07 23:09 | 65.89803 | -39.47284 | 9861 ft | 162 kts | 103° |
| 2026-05-07 23:09 | 65.89449 | -39.44669 | 9753 ft | 162 kts | 105° |
| 2026-05-07 23:09 | 65.89095 | -39.42061 | 9646 ft | 161 kts | 105° |
| 2026-05-07 23:10 | 65.88742 | -39.39459 | 9539 ft | 161 kts | 105° |
| 2026-05-07 23:10 | 65.88387 | -39.36872 | 9432 ft | 160 kts | 104° |
| 2026-05-07 23:10 | 65.88033 | -39.34285 | 9322 ft | 161 kts | 102° |
| 2026-05-07 23:10 | 65.87686 | -39.31728 | 9223 ft | 161 kts | 102° |
| 2026-05-07 23:11 | 65.87332 | -39.29136 | 9117 ft | 161 kts | 103° |
| 2026-05-07 23:11 | 65.86974 | -39.26553 | 9002 ft | 160 kts | 103° |
| 2026-05-07 23:11 | 65.86620 | -39.23977 | 8900 ft | 159 kts | 102° |
| 2026-05-07 23:11 | 65.86271 | -39.21411 | 8794 ft | 159 kts | 103° |
| 2026-05-07 23:12 | 65.85918 | -39.18857 | 8694 ft | 158 kts | 105° |
| 2026-05-07 23:12 | 65.85566 | -39.16314 | 8587 ft | 158 kts | 103° |
| 2026-05-07 23:12 | 65.85217 | -39.13772 | 8488 ft | 158 kts | 106° |
| 2026-05-07 23:12 | 65.84864 | -39.11228 | 8384 ft | 158 kts | 102° |
| 2026-05-07 23:13 | 65.84512 | -39.08682 | 8279 ft | 158 kts | 103° |
| 2026-05-07 23:13 | 65.84158 | -39.06134 | 8177 ft | 159 kts | 105° |
| 2026-05-07 23:13 | 65.83804 | -39.03583 | 8081 ft | 158 kts | 104° |
| 2026-05-07 23:13 | 65.83450 | -39.01042 | 7980 ft | 158 kts | 105° |
| 2026-05-07 23:14 | 65.83095 | -38.98499 | 7880 ft | 159 kts | 105° |
| 2026-05-07 23:14 | 65.82740 | -38.95949 | 7780 ft | 159 kts | 103° |
| 2026-05-07 23:14 | 65.82386 | -38.93403 | 7680 ft | 158 kts | 105° |
| 2026-05-07 23:14 | 65.82031 | -38.90872 | 7557 ft | 158 kts | 103° |
| 2026-05-07 23:15 | 65.81675 | -38.88347 | 7457 ft | 157 kts | 103° |
| 2026-05-07 23:15 | 65.81321 | -38.85814 | 7357 ft | 158 kts | 105° |
| 2026-05-07 23:15 | 65.80966 | -38.83284 | 7261 ft | 158 kts | 104° |
| 2026-05-07 23:15 | 65.80610 | -38.80758 | 7160 ft | 157 kts | 105° |
| 2026-05-07 23:16 | 65.80253 | -38.78238 | 7066 ft | 157 kts | 106° |
| 2026-05-07 23:16 | 65.79897 | -38.75716 | 6967 ft | 157 kts | 103° |
| 2026-05-07 23:16 | 65.79542 | -38.73202 | 6870 ft | 157 kts | 103° |
| 2026-05-07 23:16 | 65.79184 | -38.70673 | 6748 ft | 159 kts | 104° |
| 2026-05-07 23:17 | 65.78824 | -38.68132 | 6623 ft | 159 kts | 104° |
| 2026-05-07 23:17 | 65.78466 | -38.65615 | 6498 ft | 160 kts | 103° |
| 2026-05-07 23:17 | 65.78105 | -38.63052 | 6367 ft | 160 kts | 104° |
| 2026-05-07 23:17 | 65.77737 | -38.60488 | 6236 ft | 161 kts | 106° |
| 2026-05-07 23:18 | 65.77369 | -38.57919 | 6103 ft | 161 kts | 103° |
| 2026-05-07 23:18 | 65.77003 | -38.55356 | 5974 ft | 160 kts | 107° |
| 2026-05-07 23:18 | 65.76636 | -38.52798 | 5832 ft | 159 kts | 102° |
| 2026-05-07 23:18 | 65.76271 | -38.50242 | 5701 ft | 160 kts | 104° |
| 2026-05-07 23:19 | 65.75907 | -38.47723 | 5570 ft | 156 kts | 107° |
| 2026-05-07 23:19 | 65.75551 | -38.45223 | 5446 ft | 157 kts | 104° |
| 2026-05-07 23:19 | 65.75184 | -38.42698 | 5351 ft | 158 kts | 107° |
| 2026-05-07 23:19 | 65.74824 | -38.40229 | 5370 ft | 154 kts | 105° |
| 2026-05-07 23:20 | 65.74474 | -38.37744 | 5403 ft | 157 kts | 105° |
| 2026-05-07 23:20 | 65.74104 | -38.35219 | 5357 ft | 162 kts | 110° |
| 2026-05-07 23:20 | 65.73733 | -38.32679 | 5409 ft | 160 kts | 109° |
| 2026-05-07 23:20 | 65.73362 | -38.30076 | 5302 ft | 166 kts | 109° |
| 2026-05-07 23:21 | 65.72982 | -38.27435 | 5176 ft | 164 kts | 109° |
| 2026-05-07 23:21 | 65.72606 | -38.24857 | 5127 ft | 158 kts | 109° |
| 2026-05-07 23:21 | 65.72246 | -38.22389 | 5109 ft | 152 kts | 110° |
| 2026-05-07 23:21 | 65.71901 | -38.20017 | 5106 ft | 147 kts | 110° |
| 2026-05-07 23:22 | 65.71565 | -38.17711 | 5110 ft | 143 kts | 109° |
| 2026-05-07 23:22 | 65.71228 | -38.15406 | 4996 ft | 148 kts | 110° |
| 2026-05-07 23:22 | 65.70880 | -38.13027 | 4865 ft | 150 kts | 110° |
| 2026-05-07 23:22 | 65.70527 | -38.10615 | 4736 ft | 153 kts | 110° |
| 2026-05-07 23:23 | 65.70168 | -38.08169 | 4609 ft | 154 kts | 110° |
| 2026-05-07 23:23 | 65.69806 | -38.05703 | 4479 ft | 156 kts | 110° |
| 2026-05-07 23:23 | 65.69441 | -38.03221 | 4353 ft | 156 kts | 110° |
| 2026-05-07 23:23 | 65.69075 | -38.00738 | 4219 ft | 157 kts | 110° |
| 2026-05-07 23:24 | 65.68707 | -37.98245 | 4086 ft | 157 kts | 110° |
| 2026-05-07 23:24 | 65.68339 | -37.95747 | 3962 ft | 157 kts | 110° |
| 2026-05-07 23:24 | 65.67970 | -37.93261 | 3902 ft | 153 kts | 110° |
| 2026-05-07 23:24 | 65.67622 | -37.90913 | 4025 ft | 145 kts | 110° |
| 2026-05-07 23:25 | 65.67287 | -37.88654 | 4144 ft | 140 kts | 110° |
| 2026-05-07 23:25 | 65.66959 | -37.86446 | 4266 ft | 139 kts | 110° |
| 2026-05-07 23:25 | 65.66636 | -37.84272 | 4399 ft | 136 kts | 110° |
| 2026-05-07 23:25 | 65.66318 | -37.82140 | 4523 ft | 134 kts | 110° |
| 2026-05-07 23:26 | 65.65999 | -37.79997 | 4488 ft | 144 kts | 110° |
| 2026-05-07 23:26 | 65.65654 | -37.77683 | 4367 ft | 146 kts | 110° |
| 2026-05-07 23:26 | 65.65308 | -37.75347 | 4233 ft | 148 kts | 110° |
| 2026-05-07 23:26 | 65.64954 | -37.72992 | 4103 ft | 149 kts | 110° |
| 2026-05-07 23:27 | 65.64239 | -37.68224 | 3852 ft | 151 kts | 110° |
| 2026-05-07 23:27 | 65.63879 | -37.65829 | 3725 ft | 152 kts | 110° |
| 2026-05-07 23:27 | 65.63518 | -37.63426 | 3596 ft | 152 kts | 110° |
| 2026-05-07 23:28 | 65.63155 | -37.61014 | 3469 ft | 153 kts | 110° |
| 2026-05-07 23:28 | 65.62791 | -37.58600 | 3335 ft | 153 kts | 110° |
| 2026-05-07 23:28 | 65.62425 | -37.56183 | 3203 ft | 153 kts | 110° |
| 2026-05-07 23:28 | 65.62059 | -37.53759 | 3070 ft | 153 kts | 110° |
| 2026-05-07 23:29 | 65.61694 | -37.51349 | 2942 ft | 153 kts | 110° |
| 2026-05-07 23:29 | 65.61329 | -37.48934 | 2835 ft | 152 kts | 110° |
| 2026-05-07 23:29 | 65.60972 | -37.46592 | 2832 ft | 145 kts | 111° |
| 2026-05-07 23:29 | 65.60629 | -37.44344 | 2824 ft | 140 kts | 112° |
| 2026-05-07 23:30 | 65.60295 | -37.42164 | 2824 ft | 137 kts | 111° |
| 2026-05-07 23:30 | 65.59970 | -37.40016 | 2826 ft | 135 kts | 111° |
| 2026-05-07 23:30 | 65.59649 | -37.37900 | 2825 ft | 133 kts | 111° |
| 2026-05-07 23:30 | 65.59329 | -37.35806 | 2828 ft | 132 kts | 112° |
| 2026-05-07 23:31 | 65.59011 | -37.33723 | 2828 ft | 132 kts | 112° |
| 2026-05-07 23:31 | 65.58639 | -37.31679 | 2720 ft | 135 kts | 117° |
| 2026-05-07 23:31 | 65.58133 | -37.29784 | 2568 ft | 135 kts | 134° |
| 2026-05-07 23:31 | 65.57418 | -37.28297 | 2385 ft | 135 kts | 153° |
| 2026-05-07 23:32 | 65.56560 | -37.27598 | 2320 ft | 126 kts | 176° |
| 2026-05-07 23:32 | 65.55686 | -37.27830 | 2057 ft | 130 kts | 212° |
| 2026-05-07 23:32 | 65.55288 | -37.29535 | 1915 ft | 126 kts | 277° |
| 2026-05-07 23:32 | 65.55911 | -37.30971 | 1744 ft | 130 kts | 343° |
| 2026-05-07 23:33 | 65.56793 | -37.30764 | 1620 ft | 133 kts | 24° |
| 2026-05-07 23:33 | 65.57221 | -37.29682 | 1468 ft | 139 kts | 68° |
| 2026-05-07 23:33 | 65.57189 | -37.27525 | 1328 ft | 128 kts | 101° |
| 2026-05-07 23:33 | 65.57004 | -37.25482 | 1125 ft | 122 kts | 100° |
| 2026-05-07 23:34 | 65.56953 | -37.23485 | 942 ft | 116 kts | 89° |
| 2026-05-07 23:34 | 65.56976 | -37.21553 | 756 ft | 112 kts | 88° |
| 2026-05-07 23:34 | 65.57075 | -37.19723 | 612 ft | 106 kts | 85° |
| 2026-05-07 23:34 | 65.57143 | -37.18000 | 510 ft | 102 kts | 92° |
| 2026-05-07 23:35 | 65.57204 | -37.16287 | 409 ft | 104 kts | 90° |
| 2026-05-07 23:35 | 65.57264 | -37.14514 | 240 ft | 104 kts | 89° |
| 2026-05-07 23:35 | 65.57334 | -37.12845 | 119 ft | 93 kts | 86° |
| 2026-05-07 23:35 | 65.57388 | -37.11414 | 98 ft | 71 kts | 85° |
| 2026-05-07 23:36 | 65.57411 | -37.10713 | 104 ft | 23 kts | 75° |
| 2026-05-07 23:36 | 65.57455 | -37.10679 | 99 ft | 9 kts | 211° |
| 2026-05-07 23:36 | 65.57422 | -37.10743 | 103 ft | 9 kts | 247° |
| 2026-05-07 23:36 | 65.57405 | -37.11058 | 97 ft | 32 kts | 263° |
| 2026-05-07 23:37 | 65.57368 | -37.11815 | 102 ft | 49 kts | 269° |
| 2026-05-07 23:37 | 65.57342 | -37.12532 | 103 ft | 36 kts | 262° |
| 2026-05-07 23:37 | 65.57331 | -37.12915 | 105 ft | 19 kts | 265° |
| 2026-05-07 23:37 | 65.57316 | -37.13272 | 107 ft | 19 kts | 262° |
| 2026-05-07 23:38 | 65.57356 | -37.13443 | 107 ft | 11 kts | 324° |
| 2026-05-07 23:38 | 65.57400 | -37.13505 | 108 ft | 3 kts | 8° |
| 2026-05-07 23:38 | 65.57402 | -37.13504 | 108 ft | 0 kts | 27° |
| 2026-05-07 23:42 | 0.01287 | 0.00001 | 53808 ft | 0 kts | 0° |